KSGF/SGF METAR and TAF weather

Enter ICAO airport designator
Station Type Date Time Source
KSGF METAR 2020/06/03 21:52 UTC NOAA

KSGF 032152Z 24009KT 10SM FEW045 31/21 A2987 RMK AO2 SLP101 T03060211


Station Type Date Time Source
KSGF Decoded METAR 2020/06/03 21:52 UTC NOAA

SPRINGFIELD-BRANSON NATIONAL, MO, United States (KSGF) 37-14N 93-23W 389M
Jun 03, 2020 - 05:52 PM EDT / 2020.06.03 2152 UTC
Wind: from the WSW (240 degrees) at 10 MPH (9 KT):0
Visibility: 10 mile(s):0
Sky conditions: mostly clear
Temperature: 87.1 F (30.6 C)
Dew Point: 70.0 F (21.1 C)
Relative Humidity: 56%
Pressure (altimeter): 29.87 in. Hg (1011 hPa)
ob: KSGF 032152Z 24009KT 10SM FEW045 31/21 A2987 RMK AO2 SLP101 T03060211
cycle: 22

Station Type Date Time Source
KSGF TAF 2020/06/03 18:22 UTC NOAA

TAF KSGF 031720Z 0318/0418 23010KT P6SM SCT035 PROB30 0409/0415 4SM TSRA OVC025CB

Example: see airport list